createdAt,value
2022-11-24T00:01:08.911Z,99.90
2022-11-24T00:03:36.085Z,99.90
2022-11-24T00:06:08.088Z,99.90
2022-11-24T00:08:38.804Z,99.90
2022-11-24T00:11:07.913Z,99.90
2022-11-24T00:13:35.788Z,99.90
2022-11-24T00:16:07.524Z,99.90
2022-11-24T00:18:34.205Z,99.90
2022-11-24T00:21:00.958Z,99.90
2022-11-24T00:23:27.835Z,99.90
2022-11-24T00:25:54.587Z,99.90
2022-11-24T00:28:23.862Z,99.90
2022-11-24T00:30:53.169Z,99.90
2022-11-24T00:33:19.944Z,99.90
2022-11-24T00:35:53.513Z,99.90
2022-11-24T00:38:22.884Z,99.90
2022-11-24T00:40:52.664Z,99.90
2022-11-24T00:43:19.576Z,99.90
2022-11-24T00:45:46.362Z,99.90
2022-11-24T00:48:13.234Z,99.90
2022-11-24T00:50:40.028Z,99.90
2022-11-24T00:53:09.017Z,99.90
2022-11-24T00:55:35.741Z,99.90
2022-11-24T00:58:02.478Z,99.90
2022-11-24T01:00:29.469Z,99.90
2022-11-24T01:02:56.297Z,99.90
2022-11-24T01:05:25.255Z,99.90
2022-11-24T01:07:54.652Z,99.90
2022-11-24T01:10:21.472Z,99.90
2022-11-24T01:12:48.244Z,99.90
2022-11-24T01:15:15.022Z,99.90
2022-11-24T01:17:41.744Z,99.90
2022-11-24T01:20:09.254Z,99.90
2022-11-24T01:22:38.441Z,99.90
2022-11-24T01:25:09.822Z,99.90
2022-11-24T01:27:39.001Z,99.90
2022-11-24T01:30:07.364Z,99.90
2022-11-24T01:32:36.138Z,99.90
2022-11-24T01:35:04.590Z,99.90
2022-11-24T01:37:31.546Z,99.90
2022-11-24T01:39:58.304Z,99.90
2022-11-24T01:42:36.772Z,99.90
2022-11-24T01:45:28.379Z,99.90
2022-11-24T01:47:58.354Z,99.90
2022-11-24T01:50:25.288Z,99.90
2022-11-24T01:52:55.324Z,99.90
2022-11-24T01:55:27.561Z,99.90
2022-11-24T01:58:03.454Z,99.90
2022-11-24T02:00:30.262Z,99.90
2022-11-24T02:02:58.624Z,99.90
2022-11-24T02:05:41.920Z,99.90
2022-11-24T02:08:27.314Z,99.90
2022-11-24T02:10:55.038Z,99.90
2022-11-24T02:13:22.637Z,99.90
2022-11-24T02:15:49.528Z,99.90
2022-11-24T02:18:16.362Z,99.90
2022-11-24T02:20:43.160Z,99.90
2022-11-24T02:23:17.805Z,99.90
2022-11-24T02:26:07.317Z,99.90
2022-11-24T02:28:34.120Z,99.90
2022-11-24T02:31:02.163Z,99.90
2022-11-24T02:33:29.646Z,99.90
2022-11-24T02:35:56.338Z,99.90
2022-11-24T02:38:34.113Z,99.90
2022-11-24T02:41:07.092Z,99.90
2022-11-24T02:43:39.634Z,99.90
2022-11-24T02:46:06.850Z,99.90
2022-11-24T02:48:33.616Z,99.90
2022-11-24T02:51:00.325Z,99.90
2022-11-24T02:53:29.437Z,99.90
2022-11-24T02:55:58.325Z,99.90
2022-11-24T02:58:25.043Z,99.90
2022-11-24T03:00:54.237Z,99.90
2022-11-24T03:03:24.707Z,99.90
2022-11-24T03:05:51.380Z,99.90
2022-11-24T03:08:18.423Z,99.90
2022-11-24T03:10:45.183Z,99.90
2022-11-24T03:13:11.899Z,99.90
2022-11-24T03:15:38.705Z,99.90
2022-11-24T03:18:05.460Z,99.90
2022-11-24T03:20:32.422Z,99.90
2022-11-24T03:22:59.115Z,99.90
2022-11-24T03:25:25.851Z,99.90
2022-11-24T03:27:52.821Z,99.90
2022-11-24T03:30:19.595Z,99.90
2022-11-24T03:32:50.756Z,99.90
2022-11-24T03:35:17.570Z,99.90
2022-11-24T03:37:44.295Z,99.90
2022-11-24T03:40:11.361Z,99.90
2022-11-24T03:42:38.055Z,99.90
2022-11-24T03:45:37.923Z,99.90
2022-11-24T03:47:52.318Z,99.90
2022-11-24T03:50:19.067Z,99.90
2022-11-24T03:52:48.294Z,99.90
2022-11-24T03:55:15.097Z,99.90
2022-11-24T03:57:41.792Z,99.90
2022-11-24T04:00:09.436Z,99.90
2022-11-24T04:02:41.215Z,99.90
2022-11-24T04:05:08.306Z,99.90
2022-11-24T04:07:37.763Z,99.90
2022-11-24T04:10:04.963Z,99.90
2022-11-24T04:12:46.798Z,99.90
2022-11-24T04:15:15.934Z,99.90
2022-11-24T04:17:43.027Z,99.90
2022-11-24T04:20:11.146Z,99.90
2022-11-24T04:22:40.292Z,99.90
2022-11-24T04:25:07.968Z,99.90
2022-11-24T04:27:36.374Z,99.90
2022-11-24T04:30:04.960Z,99.90
2022-11-24T04:32:38.804Z,99.90
2022-11-24T04:35:05.848Z,99.90
2022-11-24T04:37:34.776Z,99.90
2022-11-24T04:40:01.553Z,99.90
2022-11-24T04:42:32.953Z,99.90
2022-11-24T04:44:59.867Z,99.90
2022-11-24T04:47:27.483Z,99.90
2022-11-24T04:49:56.646Z,99.90
2022-11-24T04:52:24.731Z,99.90
2022-11-24T04:54:56.225Z,99.90
2022-11-24T04:57:25.230Z,99.90
2022-11-24T04:59:52.822Z,99.90
2022-11-24T05:02:20.055Z,99.90
2022-11-24T05:04:47.438Z,99.90
2022-11-24T05:07:19.017Z,99.90
2022-11-24T05:10:07.695Z,99.90
2022-11-24T05:12:34.450Z,99.90
2022-11-24T05:15:03.125Z,99.90
2022-11-24T05:17:31.651Z,99.90
2022-11-24T05:19:58.500Z,99.90
2022-11-24T05:22:26.047Z,99.90
2022-11-24T05:24:52.768Z,99.90
2022-11-24T05:27:19.476Z,99.90
2022-11-24T05:29:46.181Z,99.90
2022-11-24T05:32:12.974Z,99.90
2022-11-24T05:34:39.691Z,99.90
2022-11-24T05:37:08.324Z,99.90
2022-11-24T05:39:36.657Z,99.90
2022-11-24T05:42:25.448Z,99.90
2022-11-24T05:44:54.813Z,99.90
2022-11-24T05:47:21.937Z,99.90
2022-11-24T05:49:48.656Z,99.90
2022-11-24T05:52:15.857Z,99.90
2022-11-24T05:54:42.548Z,99.90
2022-11-24T05:57:09.335Z,99.90
2022-11-24T05:59:36.071Z,99.90
2022-11-24T06:02:03.123Z,99.90
2022-11-24T06:04:29.832Z,99.90
2022-11-24T06:06:56.566Z,99.90
2022-11-24T06:09:23.425Z,99.90
2022-11-24T06:11:50.221Z,99.90
2022-11-24T06:14:19.136Z,99.90
2022-11-24T06:16:45.923Z,99.90
2022-11-24T06:19:15.481Z,99.90
2022-11-24T06:21:42.150Z,99.90
2022-11-24T06:24:14.711Z,99.90
2022-11-24T06:26:45.924Z,99.90
2022-11-24T06:29:14.759Z,99.90
2022-11-24T06:31:44.080Z,99.90
2022-11-24T06:34:12.552Z,99.90
2022-11-24T06:36:39.740Z,99.90
2022-11-24T06:39:07.099Z,99.90
2022-11-24T06:41:33.927Z,99.90
2022-11-24T06:44:04.053Z,99.90
2022-11-24T06:46:30.904Z,99.90
2022-11-24T06:48:59.504Z,99.90
2022-11-24T06:51:26.944Z,99.90
2022-11-24T06:53:53.958Z,99.90
2022-11-24T06:56:21.993Z,99.90
2022-11-24T06:58:53.233Z,99.90
2022-11-24T07:01:23.154Z,99.90
2022-11-24T07:03:53.659Z,99.90
2022-11-24T07:06:21.724Z,99.90
2022-11-24T07:08:49.402Z,99.90
2022-11-24T07:11:25.295Z,99.90
2022-11-24T07:13:56.646Z,99.90
2022-11-24T07:16:27.475Z,99.90
2022-11-24T07:18:54.682Z,99.90
2022-11-24T07:21:23.013Z,99.90
2022-11-24T07:23:51.143Z,99.90
2022-11-24T07:26:21.708Z,99.90
2022-11-24T07:28:51.039Z,99.90
2022-11-24T07:31:20.959Z,99.90
2022-11-24T07:33:52.893Z,99.90
2022-11-24T07:36:19.626Z,99.90
2022-11-24T07:38:48.789Z,99.90
2022-11-24T07:41:17.107Z,99.90
2022-11-24T07:43:43.908Z,99.90
2022-11-24T07:46:13.515Z,99.90
2022-11-24T07:48:40.365Z,99.90
2022-11-24T07:51:10.419Z,99.90
2022-11-24T07:53:37.623Z,99.90
2022-11-24T07:56:06.371Z,99.90
2022-11-24T07:58:36.026Z,99.90
2022-11-24T08:01:17.088Z,99.90
2022-11-24T08:03:44.549Z,99.90
2022-11-24T08:06:38.726Z,99.90
2022-11-24T08:09:01.811Z,99.90
2022-11-24T08:11:29.095Z,99.90
2022-11-24T08:13:55.791Z,99.90
2022-11-24T08:16:24.783Z,99.90
2022-11-24T08:18:55.656Z,99.90
2022-11-24T08:21:23.432Z,99.90
2022-11-24T08:23:53.812Z,99.90
2022-11-24T08:26:20.576Z,99.90
2022-11-24T08:28:47.935Z,99.90
2022-11-24T08:31:18.641Z,99.90
2022-11-24T08:33:46.083Z,99.90
2022-11-24T08:36:16.650Z,99.90
2022-11-24T08:38:46.564Z,99.90
2022-11-24T08:41:16.026Z,99.90
2022-11-24T08:43:42.894Z,99.90
2022-11-24T08:46:13.027Z,99.90
2022-11-24T08:48:41.389Z,99.90
2022-11-24T08:51:10.883Z,99.90
2022-11-24T08:53:37.896Z,99.90
2022-11-24T08:56:05.421Z,99.90
2022-11-24T08:58:37.492Z,99.90
2022-11-24T09:01:09.752Z,99.90
2022-11-24T09:03:37.670Z,99.90
2022-11-24T09:06:05.575Z,99.90
2022-11-24T09:08:33.412Z,99.90
2022-11-24T09:11:05.876Z,99.90
2022-11-24T09:13:32.875Z,99.90
2022-11-24T09:16:08.100Z,99.90
2022-11-24T09:18:35.435Z,99.90
2022-11-24T09:21:20.695Z,99.90
2022-11-24T09:23:52.168Z,99.90
2022-11-24T09:26:18.797Z,99.90
2022-11-24T09:28:48.177Z,99.90
2022-11-24T09:31:18.127Z,99.90
2022-11-24T09:33:45.564Z,99.90
2022-11-24T09:36:15.258Z,99.90
2022-11-24T09:38:42.180Z,99.90
2022-11-24T09:41:19.903Z,99.90
2022-11-24T09:44:03.959Z,99.90
2022-11-24T09:46:50.519Z,99.90
2022-11-24T09:49:24.128Z,99.90
2022-11-24T09:51:54.010Z,99.90
2022-11-24T09:54:31.452Z,99.90
2022-11-24T09:57:00.989Z,99.90
2022-11-24T09:59:28.403Z,99.90
2022-11-24T10:01:56.659Z,99.90
2022-11-24T10:04:35.184Z,99.90
2022-11-24T10:07:28.417Z,99.90
2022-11-24T10:10:04.237Z,99.90
2022-11-24T10:12:30.919Z,99.90
2022-11-24T10:15:12.649Z,99.90
2022-11-24T10:17:54.494Z,99.90
2022-11-24T10:20:31.105Z,99.90
2022-11-24T10:23:16.444Z,99.90
2022-11-24T10:25:59.530Z,99.90
2022-11-24T10:28:45.867Z,99.90
2022-11-24T10:31:12.636Z,99.90
2022-11-24T10:33:40.326Z,99.90
2022-11-24T10:36:13.740Z,99.90
2022-11-24T10:39:12.244Z,99.90
2022-11-24T10:41:41.980Z,99.90
2022-11-24T10:44:14.056Z,99.90
2022-11-24T10:46:41.199Z,99.90
2022-11-24T10:49:25.065Z,99.90
2022-11-24T10:51:51.739Z,99.90
2022-11-24T10:54:23.782Z,99.90
2022-11-24T10:56:54.737Z,99.90
2022-11-24T10:59:30.164Z,99.90
2022-11-24T11:01:57.228Z,99.90
2022-11-24T11:04:33.663Z,99.90
2022-11-24T11:07:18.637Z,99.90
2022-11-24T11:09:46.293Z,99.90
2022-11-24T11:12:43.375Z,99.90
2022-11-24T11:15:27.160Z,99.90
2022-11-24T11:18:01.148Z,99.90
2022-11-24T11:20:32.582Z,99.90
2022-11-24T11:23:12.938Z,99.90
2022-11-24T11:25:41.129Z,99.90
2022-11-24T11:28:18.301Z,99.90
2022-11-24T11:31:16.572Z,99.90
2022-11-24T11:34:03.328Z,99.90
2022-11-24T11:36:33.763Z,99.90
2022-11-24T11:39:06.140Z,99.90
2022-11-24T11:41:36.351Z,99.90
2022-11-24T11:44:14.181Z,99.90
2022-11-24T11:46:43.549Z,99.90
2022-11-24T11:49:13.626Z,99.70
2022-11-24T11:52:14.271Z,99.00
2022-11-24T11:55:25.594Z,98.40
2022-11-24T11:57:57.760Z,98.90
2022-11-24T12:00:24.651Z,98.90
2022-11-24T12:03:09.563Z,98.40
2022-11-24T12:05:47.501Z,98.30
2022-11-24T12:08:20.955Z,97.40
2022-11-24T12:11:05.334Z,97.60
2022-11-24T12:13:37.638Z,97.30
2022-11-24T12:16:15.045Z,96.50
2022-11-24T12:19:18.215Z,97.30
2022-11-24T12:21:53.824Z,96.60
2022-11-24T12:24:20.484Z,96.00
2022-11-24T12:26:56.715Z,96.10
2022-11-24T12:29:46.699Z,95.90
2022-11-24T12:32:25.042Z,96.10
2022-11-24T12:35:03.508Z,95.90
2022-11-24T12:37:51.424Z,95.10
2022-11-24T12:40:26.447Z,95.20
2022-11-24T12:43:29.433Z,94.80
2022-11-24T12:45:56.090Z,94.00
2022-11-24T12:48:50.203Z,93.60
2022-11-24T12:51:19.746Z,93.00
2022-11-24T12:53:52.955Z,92.20
2022-11-24T12:56:40.792Z,92.10
2022-11-24T12:59:20.315Z,91.90
2022-11-24T13:02:09.041Z,91.20
2022-11-24T13:04:50.356Z,90.20
2022-11-24T13:07:37.954Z,89.00
2022-11-24T13:10:40.160Z,85.20
2022-11-24T13:13:12.400Z,84.90
2022-11-24T13:16:20.587Z,85.30
2022-11-24T13:18:46.714Z,83.40
2022-11-24T13:21:35.797Z,81.90
2022-11-24T13:24:05.967Z,82.10
2022-11-24T13:26:54.678Z,81.30
2022-11-24T13:29:30.287Z,80.10
2022-11-24T13:32:03.135Z,80.00
2022-11-24T13:34:45.748Z,81.50
2022-11-24T13:37:35.464Z,82.40
2022-11-24T13:40:22.896Z,81.30
2022-11-24T13:43:01.246Z,80.90
2022-11-24T13:45:43.224Z,80.80
2022-11-24T13:48:28.062Z,80.70
2022-11-24T13:50:54.837Z,80.60
2022-11-24T13:53:48.106Z,80.70
2022-11-24T13:56:17.920Z,80.90
2022-11-24T13:58:45.689Z,81.40
2022-11-24T14:01:13.617Z,81.90
2022-11-24T14:04:28.160Z,80.60
2022-11-24T14:06:54.788Z,81.00
2022-11-24T14:09:23.744Z,80.00
2022-11-24T14:12:20.329Z,81.00
2022-11-24T14:14:49.366Z,81.00
2022-11-24T14:17:28.337Z,81.60
2022-11-24T14:19:56.866Z,81.60
2022-11-24T14:22:31.735Z,82.10
2022-11-24T14:25:00.911Z,82.00
2022-11-24T14:27:29.579Z,82.50
2022-11-24T14:30:04.714Z,82.50
2022-11-24T14:32:36.513Z,82.40
2022-11-24T14:35:28.842Z,82.50
2022-11-24T14:38:02.545Z,82.60
2022-11-24T14:40:55.371Z,83.60
2022-11-24T14:43:31.044Z,83.60
2022-11-24T14:46:00.815Z,82.50
2022-11-24T14:48:36.488Z,83.40
2022-11-24T14:51:15.138Z,83.00
2022-11-24T14:53:43.989Z,84.50
2022-11-24T14:56:30.040Z,85.30
2022-11-24T14:58:58.275Z,86.30
2022-11-24T15:01:28.392Z,87.00
2022-11-24T15:04:46.362Z,88.50
2022-11-24T15:07:39.433Z,89.00
2022-11-24T15:10:19.173Z,89.40
2022-11-24T15:12:53.495Z,89.90
2022-11-24T15:15:29.751Z,90.20
2022-11-24T15:17:58.601Z,90.30
2022-11-24T15:20:44.413Z,90.60
2022-11-24T15:23:27.561Z,90.80
2022-11-24T15:25:56.570Z,91.10
2022-11-24T15:28:27.755Z,91.40
2022-11-24T15:31:05.811Z,91.40
2022-11-24T15:33:37.858Z,91.70
2022-11-24T15:36:04.902Z,92.00
2022-11-24T15:38:31.756Z,92.10
2022-11-24T15:41:00.371Z,92.30
2022-11-24T15:43:38.751Z,92.40
2022-11-24T15:46:08.967Z,92.60
2022-11-24T15:48:38.395Z,92.70
2022-11-24T15:51:11.351Z,92.90
2022-11-24T15:53:47.198Z,93.00
2022-11-24T15:56:36.700Z,93.10
2022-11-24T15:59:04.304Z,93.40
2022-11-24T16:01:33.255Z,93.60
2022-11-24T16:04:00.802Z,93.80
2022-11-24T16:06:27.578Z,94.00
2022-11-24T16:08:54.889Z,93.70
2022-11-24T16:11:23.959Z,93.90
2022-11-24T16:13:53.262Z,94.00
2022-11-24T16:16:21.952Z,94.00
2022-11-24T16:18:48.908Z,94.10
2022-11-24T16:21:18.015Z,94.30
2022-11-24T16:23:45.674Z,94.20
2022-11-24T16:26:14.618Z,94.10
2022-11-24T16:28:46.400Z,94.10
2022-11-24T16:31:15.635Z,94.10
2022-11-24T16:33:44.778Z,94.20
2022-11-24T16:36:11.904Z,94.20
2022-11-24T16:38:38.591Z,94.30
2022-11-24T16:41:05.478Z,94.60
2022-11-24T16:43:32.377Z,94.70
2022-11-24T16:46:22.774Z,94.60
2022-11-24T16:48:51.565Z,94.50
2022-11-24T16:51:20.543Z,94.80
2022-11-24T16:54:07.831Z,94.90
2022-11-24T16:56:34.740Z,94.90
2022-11-24T16:59:06.566Z,95.10
2022-11-24T17:01:33.388Z,95.20
2022-11-24T17:04:00.896Z,95.40
2022-11-24T17:06:27.725Z,95.50
2022-11-24T17:08:57.865Z,95.70
2022-11-24T17:11:26.640Z,95.70
2022-11-24T17:13:53.756Z,95.80
2022-11-24T17:16:23.268Z,95.90
2022-11-24T17:18:50.557Z,96.00
2022-11-24T17:21:34.674Z,96.10
2022-11-24T17:24:05.286Z,95.90
2022-11-24T17:26:35.326Z,96.00
2022-11-24T17:29:02.213Z,95.90
2022-11-24T17:31:35.421Z,95.90
2022-11-24T17:34:06.021Z,95.90
2022-11-24T17:36:34.593Z,95.80
2022-11-24T17:39:04.464Z,96.00
2022-11-24T17:41:32.158Z,96.10
2022-11-24T17:43:59.313Z,96.20
2022-11-24T17:46:27.601Z,96.20
2022-11-24T17:48:54.443Z,96.30
2022-11-24T17:51:23.948Z,96.30
2022-11-24T17:53:52.188Z,96.10
2022-11-24T17:56:23.666Z,96.10
2022-11-24T17:58:59.072Z,96.20
2022-11-24T18:01:28.365Z,96.30
2022-11-24T18:03:57.881Z,96.20
2022-11-24T18:06:25.426Z,96.20
2022-11-24T18:08:53.965Z,96.20
2022-11-24T18:11:30.635Z,96.20
2022-11-24T18:14:01.017Z,96.50
2022-11-24T18:16:30.417Z,96.50
2022-11-24T18:19:08.713Z,96.50
2022-11-24T18:21:40.695Z,96.60
2022-11-24T18:24:08.912Z,96.70
2022-11-24T18:26:36.327Z,96.60
2022-11-24T18:29:03.194Z,96.50
2022-11-24T18:31:31.275Z,96.50
2022-11-24T18:33:59.181Z,96.70
2022-11-24T18:36:30.247Z,96.60
2022-11-24T18:39:04.444Z,96.60
2022-11-24T18:41:33.538Z,96.40
2022-11-24T18:44:03.012Z,96.60
2022-11-24T18:46:29.914Z,96.60
2022-11-24T18:48:56.635Z,96.60
2022-11-24T18:51:23.604Z,96.40
2022-11-24T18:53:54.524Z,96.50
2022-11-24T18:56:23.911Z,96.80
2022-11-24T18:58:55.527Z,96.70
2022-11-24T19:01:25.415Z,96.80
2022-11-24T19:03:59.509Z,96.70
2022-11-24T19:06:33.332Z,96.60
2022-11-24T19:09:14.830Z,96.50
2022-11-24T19:11:44.113Z,96.80
2022-11-24T19:14:14.818Z,97.10
2022-11-24T19:16:42.248Z,97.00
2022-11-24T19:19:12.256Z,97.20
2022-11-24T19:21:40.120Z,97.80
2022-11-24T19:24:10.129Z,97.80
2022-11-24T19:26:37.752Z,97.90
2022-11-24T19:29:06.046Z,97.80
2022-11-24T19:31:33.431Z,98.00
2022-11-24T19:34:00.770Z,98.10
2022-11-24T19:36:29.975Z,98.20
2022-11-24T19:39:00.943Z,98.20
2022-11-24T19:41:29.697Z,98.30
2022-11-24T19:43:59.577Z,98.60
2022-11-24T19:46:31.710Z,98.90
2022-11-24T19:49:08.165Z,99.00
2022-11-24T19:51:38.533Z,99.10
2022-11-24T19:54:13.166Z,99.00
2022-11-24T19:56:41.321Z,99.30
2022-11-24T19:59:08.178Z,99.40
2022-11-24T20:01:38.843Z,99.50
2022-11-24T20:04:07.917Z,99.50
2022-11-24T20:06:39.166Z,99.70
2022-11-24T20:09:08.754Z,99.90
2022-11-24T20:11:36.396Z,99.90
2022-11-24T20:14:03.723Z,99.90
2022-11-24T20:16:33.887Z,99.90
2022-11-24T20:19:07.183Z,99.90
2022-11-24T20:21:35.400Z,99.90
2022-11-24T20:24:08.141Z,99.90
2022-11-24T20:26:37.452Z,99.90
2022-11-24T20:29:05.245Z,99.90
2022-11-24T20:31:35.100Z,99.90
2022-11-24T20:34:03.276Z,99.90
2022-11-24T20:36:31.765Z,99.90
2022-11-24T20:39:03.613Z,99.90
2022-11-24T20:41:33.689Z,99.90
2022-11-24T20:44:08.104Z,99.90
2022-11-24T20:46:37.899Z,99.90
2022-11-24T20:49:06.641Z,99.90
2022-11-24T20:51:36.510Z,99.90
2022-11-24T20:54:07.593Z,99.90
2022-11-24T20:56:36.867Z,99.90
2022-11-24T20:59:04.707Z,99.90
2022-11-24T21:01:35.125Z,99.90
2022-11-24T21:04:03.159Z,99.90
2022-11-24T21:06:30.634Z,99.90
2022-11-24T21:09:03.247Z,99.90
2022-11-24T21:11:30.909Z,99.90
2022-11-24T21:13:57.804Z,99.90
2022-11-24T21:16:30.234Z,99.90
2022-11-24T21:18:59.450Z,99.90
2022-11-24T21:21:33.238Z,99.90
2022-11-24T21:24:11.124Z,99.90
2022-11-24T21:26:42.475Z,99.90
2022-11-24T21:29:12.477Z,99.90
2022-11-24T21:31:39.896Z,99.90
2022-11-24T21:34:07.686Z,99.90
2022-11-24T21:36:40.745Z,99.90
2022-11-24T21:39:07.592Z,99.90
2022-11-24T21:41:34.439Z,99.90
2022-11-24T21:44:01.425Z,99.90
2022-11-24T21:46:29.988Z,99.90
2022-11-24T21:48:58.939Z,99.90
2022-11-24T21:51:25.631Z,99.90
2022-11-24T21:53:55.005Z,99.90
2022-11-24T21:56:25.003Z,99.90
2022-11-24T21:58:58.060Z,99.90
2022-11-24T22:01:28.006Z,99.90
2022-11-24T22:03:55.592Z,99.90
2022-11-24T22:06:24.849Z,99.90
2022-11-24T22:08:57.572Z,99.90
2022-11-24T22:11:27.952Z,99.90
2022-11-24T22:13:54.622Z,99.90
2022-11-24T22:16:23.576Z,99.90
2022-11-24T22:18:51.207Z,99.90
2022-11-24T22:21:29.905Z,99.90
2022-11-24T22:23:57.415Z,99.90
2022-11-24T22:26:24.135Z,99.90
2022-11-24T22:28:53.540Z,99.90
2022-11-24T22:31:25.006Z,99.90
2022-11-24T22:33:55.232Z,99.90
2022-11-24T22:36:23.948Z,99.90
2022-11-24T22:38:55.175Z,99.90
2022-11-24T22:41:22.108Z,99.90
2022-11-24T22:43:49.368Z,99.90
2022-11-24T22:46:18.797Z,99.90
2022-11-24T22:48:49.888Z,99.90
2022-11-24T22:51:22.282Z,99.90
2022-11-24T22:53:51.199Z,99.90
2022-11-24T22:56:19.574Z,99.90
2022-11-24T22:58:48.952Z,99.90
2022-11-24T23:01:15.623Z,99.90
2022-11-24T23:03:42.853Z,99.90
2022-11-24T23:06:21.268Z,99.90
2022-11-24T23:08:51.317Z,99.90
2022-11-24T23:11:37.680Z,99.90
2022-11-24T23:14:07.084Z,99.90
2022-11-24T23:16:33.802Z,99.90
2022-11-24T23:19:03.009Z,99.90
2022-11-24T23:21:32.661Z,99.90
2022-11-24T23:24:01.321Z,99.90
2022-11-24T23:26:32.970Z,99.90
2022-11-24T23:29:00.015Z,99.90
2022-11-24T23:31:30.697Z,99.90
2022-11-24T23:33:59.520Z,99.90
2022-11-24T23:36:27.456Z,99.90
2022-11-24T23:38:54.467Z,99.90
2022-11-24T23:41:23.771Z,99.90
2022-11-24T23:43:53.227Z,99.90
2022-11-24T23:46:24.754Z,99.90
2022-11-24T23:48:53.099Z,99.90
2022-11-24T23:51:22.600Z,99.90
2022-11-24T23:53:51.118Z,99.90
2022-11-24T23:56:26.173Z,99.90
2022-11-24T23:58:53.260Z,99.90
